sensor_id;sensor_type;location;lat;lon;timestamp;temperature;humidity
22827;DHT22;11580;52.562;13.418;2023-06-22T00:02:22;23.80;34.80
22827;DHT22;11580;52.562;13.418;2023-06-22T00:04:50;23.80;34.90
22827;DHT22;11580;52.562;13.418;2023-06-22T00:07:17;23.70;34.40
22827;DHT22;11580;52.562;13.418;2023-06-22T00:09:44;23.70;34.20
22827;DHT22;11580;52.562;13.418;2023-06-22T00:12:12;23.70;34.40
22827;DHT22;11580;52.562;13.418;2023-06-22T00:14:39;23.60;34.40
22827;DHT22;11580;52.562;13.418;2023-06-22T00:17:06;23.60;34.40
22827;DHT22;11580;52.562;13.418;2023-06-22T00:19:33;23.60;34.60
22827;DHT22;11580;52.562;13.418;2023-06-22T00:22:02;23.50;34.60
22827;DHT22;11580;52.562;13.418;2023-06-22T00:24:30;23.50;35.00
22827;DHT22;11580;52.562;13.418;2023-06-22T00:26:57;23.50;34.90
22827;DHT22;11580;52.562;13.418;2023-06-22T00:29:24;23.40;34.90
22827;DHT22;11580;52.562;13.418;2023-06-22T00:31:51;23.40;35.00
22827;DHT22;11580;52.562;13.418;2023-06-22T00:34:18;23.40;35.00
22827;DHT22;11580;52.562;13.418;2023-06-22T00:36:46;23.30;35.80
22827;DHT22;11580;52.562;13.418;2023-06-22T00:39:14;23.30;35.20
22827;DHT22;11580;52.562;13.418;2023-06-22T00:41:42;23.30;35.60
22827;DHT22;11580;52.562;13.418;2023-06-22T00:44:09;23.20;35.30
22827;DHT22;11580;52.562;13.418;2023-06-22T00:46:37;23.20;35.80
22827;DHT22;11580;52.562;13.418;2023-06-22T00:49:05;23.20;35.60
22827;DHT22;11580;52.562;13.418;2023-06-22T00:51:32;23.10;35.70
22827;DHT22;11580;52.562;13.418;2023-06-22T00:54:00;23.10;36.40
22827;DHT22;11580;52.562;13.418;2023-06-22T00:56:29;23.10;35.90
22827;DHT22;11580;52.562;13.418;2023-06-22T00:58:57;23.00;36.80
22827;DHT22;11580;52.562;13.418;2023-06-22T01:01:26;23.00;36.20
22827;DHT22;11580;52.562;13.418;2023-06-22T01:03:55;23.00;36.80
22827;DHT22;11580;52.562;13.418;2023-06-22T01:06:29;22.90;36.00
22827;DHT22;11580;52.562;13.418;2023-06-22T01:09:11;22.90;37.00
22827;DHT22;11580;52.562;13.418;2023-06-22T01:11:45;22.90;37.00
22827;DHT22;11580;52.562;13.418;2023-06-22T01:14:23;22.80;37.00
22827;DHT22;11580;52.562;13.418;2023-06-22T01:16:57;22.80;37.10
22827;DHT22;11580;52.562;13.418;2023-06-22T01:19:37;22.80;37.40
22827;DHT22;11580;52.562;13.418;2023-06-22T01:22:08;22.80;37.60
22827;DHT22;11580;52.562;13.418;2023-06-22T01:24:49;22.70;36.70
22827;DHT22;11580;52.562;13.418;2023-06-22T01:27:40;22.70;37.60
22827;DHT22;11580;52.562;13.418;2023-06-22T01:30:20;22.70;37.90
22827;DHT22;11580;52.562;13.418;2023-06-22T01:32:48;22.60;37.10
22827;DHT22;11580;52.562;13.418;2023-06-22T01:35:17;22.60;37.00
22827;DHT22;11580;52.562;13.418;2023-06-22T01:37:46;22.60;37.10
22827;DHT22;11580;52.562;13.418;2023-06-22T01:40:14;22.50;37.00
22827;DHT22;11580;52.562;13.418;2023-06-22T01:42:43;22.50;37.20
22827;DHT22;11580;52.562;13.418;2023-06-22T01:45:11;22.50;37.30
22827;DHT22;11580;52.562;13.418;2023-06-22T01:47:40;22.50;37.40
22827;DHT22;11580;52.562;13.418;2023-06-22T01:50:09;22.50;38.60
22827;DHT22;11580;52.562;13.418;2023-06-22T01:52:38;22.40;37.60
22827;DHT22;11580;52.562;13.418;2023-06-22T01:55:06;22.40;37.70
22827;DHT22;11580;52.562;13.418;2023-06-22T01:57:34;22.40;37.80
22827;DHT22;11580;52.562;13.418;2023-06-22T02:00:04;22.30;37.80
22827;DHT22;11580;52.562;13.418;2023-06-22T02:02:51;22.30;38.20
22827;DHT22;11580;52.562;13.418;2023-06-22T02:05:23;22.30;39.30
22827;DHT22;11580;52.562;13.418;2023-06-22T02:08:00;22.30;38.60
22827;DHT22;11580;52.562;13.418;2023-06-22T02:10:34;22.20;38.50
22827;DHT22;11580;52.562;13.418;2023-06-22T02:13:06;22.20;38.50
22827;DHT22;11580;52.562;13.418;2023-06-22T02:15:36;22.20;38.50
22827;DHT22;11580;52.562;13.418;2023-06-22T02:18:05;22.20;38.50
22827;DHT22;11580;52.562;13.418;2023-06-22T02:20:32;22.20;38.50
22827;DHT22;11580;52.562;13.418;2023-06-22T02:23:03;22.20;38.50
22827;DHT22;11580;52.562;13.418;2023-06-22T02:25:34;22.10;38.40
22827;DHT22;11580;52.562;13.418;2023-06-22T02:28:03;22.10;38.40
22827;DHT22;11580;52.562;13.418;2023-06-22T02:30:31;22.10;38.40
22827;DHT22;11580;52.562;13.418;2023-06-22T02:32:59;22.10;38.40
22827;DHT22;11580;52.562;13.418;2023-06-22T02:35:28;22.10;38.40
22827;DHT22;11580;52.562;13.418;2023-06-22T02:37:57;22.10;39.30
22827;DHT22;11580;52.562;13.418;2023-06-22T02:40:25;22.10;38.90
22827;DHT22;11580;52.562;13.418;2023-06-22T02:42:52;22.10;39.00
22827;DHT22;11580;52.562;13.418;2023-06-22T02:45:19;22.10;39.10
22827;DHT22;11580;52.562;13.418;2023-06-22T02:47:47;22.10;39.10
22827;DHT22;11580;52.562;13.418;2023-06-22T02:50:15;22.20;39.30
22827;DHT22;11580;52.562;13.418;2023-06-22T02:52:44;22.20;39.30
22827;DHT22;11580;52.562;13.418;2023-06-22T02:55:12;22.20;40.30
22827;DHT22;11580;52.562;13.418;2023-06-22T02:57:39;22.30;40.30
22827;DHT22;11580;52.562;13.418;2023-06-22T03:00:10;22.40;39.70
22827;DHT22;11580;52.562;13.418;2023-06-22T03:02:43;22.50;39.90
22827;DHT22;11580;52.562;13.418;2023-06-22T03:05:11;22.50;39.70
22827;DHT22;11580;52.562;13.418;2023-06-22T03:07:40;22.60;40.50
22827;DHT22;11580;52.562;13.418;2023-06-22T03:10:10;22.80;40.70
22827;DHT22;11580;52.562;13.418;2023-06-22T03:12:39;22.80;40.00
22827;DHT22;11580;52.562;13.418;2023-06-22T03:15:09;23.00;40.00
22827;DHT22;11580;52.562;13.418;2023-06-22T03:17:38;23.10;39.40
22827;DHT22;11580;52.562;13.418;2023-06-22T03:20:08;23.20;39.30
22827;DHT22;11580;52.562;13.418;2023-06-22T03:22:38;23.40;39.50
22827;DHT22;11580;52.562;13.418;2023-06-22T03:25:07;23.50;39.60
22827;DHT22;11580;52.562;13.418;2023-06-22T03:27:43;23.60;39.20
22827;DHT22;11580;52.562;13.418;2023-06-22T03:30:11;23.70;39.10
22827;DHT22;11580;52.562;13.418;2023-06-22T03:32:39;23.90;39.00
22827;DHT22;11580;52.562;13.418;2023-06-22T03:35:06;24.00;38.80
22827;DHT22;11580;52.562;13.418;2023-06-22T03:37:36;24.10;38.60
22827;DHT22;11580;52.562;13.418;2023-06-22T03:40:05;24.20;38.00
22827;DHT22;11580;52.562;13.418;2023-06-22T03:42:34;24.30;37.70
22827;DHT22;11580;52.562;13.418;2023-06-22T03:45:04;24.40;37.80
22827;DHT22;11580;52.562;13.418;2023-06-22T03:47:32;24.50;37.90
22827;DHT22;11580;52.562;13.418;2023-06-22T03:50:00;24.60;38.00
22827;DHT22;11580;52.562;13.418;2023-06-22T03:52:29;24.80;38.90
22827;DHT22;11580;52.562;13.418;2023-06-22T03:54:56;25.00;38.00
22827;DHT22;11580;52.562;13.418;2023-06-22T03:57:23;25.20;37.70
22827;DHT22;11580;52.562;13.418;2023-06-22T03:59:50;25.40;37.20
22827;DHT22;11580;52.562;13.418;2023-06-22T04:02:19;25.60;37.50
22827;DHT22;11580;52.562;13.418;2023-06-22T04:04:46;25.90;36.20
22827;DHT22;11580;52.562;13.418;2023-06-22T04:07:13;26.10;36.00
22827;DHT22;11580;52.562;13.418;2023-06-22T04:09:41;26.30;35.80
22827;DHT22;11580;52.562;13.418;2023-06-22T04:12:08;26.50;36.30
22827;DHT22;11580;52.562;13.418;2023-06-22T04:14:35;26.70;35.40
22827;DHT22;11580;52.562;13.418;2023-06-22T04:17:03;26.90;35.10
22827;DHT22;11580;52.562;13.418;2023-06-22T04:19:32;27.30;34.90
22827;DHT22;11580;52.562;13.418;2023-06-22T04:21:59;27.60;34.30
22827;DHT22;11580;52.562;13.418;2023-06-22T04:24:26;27.90;34.10
22827;DHT22;11580;52.562;13.418;2023-06-22T04:26:53;28.20;33.50
22827;DHT22;11580;52.562;13.418;2023-06-22T04:29:21;28.50;33.70
22827;DHT22;11580;52.562;13.418;2023-06-22T04:31:55;28.70;32.50
22827;DHT22;11580;52.562;13.418;2023-06-22T04:34:24;29.00;32.90
22827;DHT22;11580;52.562;13.418;2023-06-22T04:36:54;29.30;31.60
22827;DHT22;11580;52.562;13.418;2023-06-22T04:39:21;29.60;31.90
22827;DHT22;11580;52.562;13.418;2023-06-22T04:41:49;29.90;31.40
22827;DHT22;11580;52.562;13.418;2023-06-22T04:44:18;30.30;30.70
22827;DHT22;11580;52.562;13.418;2023-06-22T04:46:50;30.60;30.00
22827;DHT22;11580;52.562;13.418;2023-06-22T04:49:20;31.00;29.70
22827;DHT22;11580;52.562;13.418;2023-06-22T04:51:48;31.30;29.80
22827;DHT22;11580;52.562;13.418;2023-06-22T04:54:18;31.60;28.90
22827;DHT22;11580;52.562;13.418;2023-06-22T04:56:45;31.90;28.70
22827;DHT22;11580;52.562;13.418;2023-06-22T04:59:14;32.20;27.80
22827;DHT22;11580;52.562;13.418;2023-06-22T05:01:44;32.40;27.10
22827;DHT22;11580;52.562;13.418;2023-06-22T05:04:11;32.70;26.70
22827;DHT22;11580;52.562;13.418;2023-06-22T05:06:38;32.90;26.10
22827;DHT22;11580;52.562;13.418;2023-06-22T05:09:06;33.10;25.60
22827;DHT22;11580;52.562;13.418;2023-06-22T05:11:34;33.10;24.50
22827;DHT22;11580;52.562;13.418;2023-06-22T05:14:01;33.10;24.10
22827;DHT22;11580;52.562;13.418;2023-06-22T05:16:29;33.10;24.20
22827;DHT22;11580;52.562;13.418;2023-06-22T05:18:56;33.00;23.90
22827;DHT22;11580;52.562;13.418;2023-06-22T05:21:24;32.90;23.70
22827;DHT22;11580;52.562;13.418;2023-06-22T05:23:54;32.90;23.50
22827;DHT22;11580;52.562;13.418;2023-06-22T05:26:22;32.90;23.20
22827;DHT22;11580;52.562;13.418;2023-06-22T05:28:50;32.80;22.90
22827;DHT22;11580;52.562;13.418;2023-06-22T05:31:18;32.70;22.40
22827;DHT22;11580;52.562;13.418;2023-06-22T05:33:46;32.60;22.50
22827;DHT22;11580;52.562;13.418;2023-06-22T05:36:14;32.50;22.50
22827;DHT22;11580;52.562;13.418;2023-06-22T05:38:42;32.40;22.20
22827;DHT22;11580;52.562;13.418;2023-06-22T05:41:09;32.30;22.20
22827;DHT22;11580;52.562;13.418;2023-06-22T05:43:36;32.20;22.10
22827;DHT22;11580;52.562;13.418;2023-06-22T05:46:05;32.10;22.10
22827;DHT22;11580;52.562;13.418;2023-06-22T05:48:32;32.00;22.00
22827;DHT22;11580;52.562;13.418;2023-06-22T05:50:59;31.80;21.90
22827;DHT22;11580;52.562;13.418;2023-06-22T05:53:26;31.60;22.10
22827;DHT22;11580;52.562;13.418;2023-06-22T05:55:54;31.50;22.40
22827;DHT22;11580;52.562;13.418;2023-06-22T05:58:21;31.30;22.20
22827;DHT22;11580;52.562;13.418;2023-06-22T06:00:49;31.20;22.40
22827;DHT22;11580;52.562;13.418;2023-06-22T06:03:17;31.00;22.60
22827;DHT22;11580;52.562;13.418;2023-06-22T06:05:44;30.90;22.60
22827;DHT22;11580;52.562;13.418;2023-06-22T06:08:12;30.80;22.80
22827;DHT22;11580;52.562;13.418;2023-06-22T06:10:39;30.80;22.90
22827;DHT22;11580;52.562;13.418;2023-06-22T06:13:06;30.70;22.90
22827;DHT22;11580;52.562;13.418;2023-06-22T06:15:34;30.60;23.00
22827;DHT22;11580;52.562;13.418;2023-06-22T06:18:01;30.60;23.00
22827;DHT22;11580;52.562;13.418;2023-06-22T06:20:32;30.50;23.30
22827;DHT22;11580;52.562;13.418;2023-06-22T06:22:59;30.40;23.30
22827;DHT22;11580;52.562;13.418;2023-06-22T06:25:26;30.30;23.40
22827;DHT22;11580;52.562;13.418;2023-06-22T06:27:53;30.30;24.10
22827;DHT22;11580;52.562;13.418;2023-06-22T06:30:21;30.20;23.60
22827;DHT22;11580;52.562;13.418;2023-06-22T06:32:49;30.10;23.60
22827;DHT22;11580;52.562;13.418;2023-06-22T06:35:17;30.00;23.50
22827;DHT22;11580;52.562;13.418;2023-06-22T06:37:48;30.00;23.50
22827;DHT22;11580;52.562;13.418;2023-06-22T06:40:17;29.80;23.50
22827;DHT22;11580;52.562;13.418;2023-06-22T06:42:47;29.70;23.70
22827;DHT22;11580;52.562;13.418;2023-06-22T06:45:17;29.70;24.60
22827;DHT22;11580;52.562;13.418;2023-06-22T06:47:46;29.60;24.00
22827;DHT22;11580;52.562;13.418;2023-06-22T06:50:14;29.60;24.00
22827;DHT22;11580;52.562;13.418;2023-06-22T06:52:42;29.60;24.00
22827;DHT22;11580;52.562;13.418;2023-06-22T06:55:11;29.60;24.20
22827;DHT22;11580;52.562;13.418;2023-06-22T06:57:39;29.60;24.00
22827;DHT22;11580;52.562;13.418;2023-06-22T07:00:09;29.60;24.10
22827;DHT22;11580;52.562;13.418;2023-06-22T07:02:40;29.60;24.00
22827;DHT22;11580;52.562;13.418;2023-06-22T07:05:08;29.60;23.80
22827;DHT22;11580;52.562;13.418;2023-06-22T07:07:36;29.60;23.70
22827;DHT22;11580;52.562;13.418;2023-06-22T07:10:05;29.60;23.70
22827;DHT22;11580;52.562;13.418;2023-06-22T07:12:34;29.60;23.60
22827;DHT22;11580;52.562;13.418;2023-06-22T07:15:02;29.60;23.60
22827;DHT22;11580;52.562;13.418;2023-06-22T07:17:31;29.60;23.40
22827;DHT22;11580;52.562;13.418;2023-06-22T07:19:58;29.60;23.40
22827;DHT22;11580;52.562;13.418;2023-06-22T07:22:25;29.60;23.60
22827;DHT22;11580;52.562;13.418;2023-06-22T07:24:52;29.60;23.50
22827;DHT22;11580;52.562;13.418;2023-06-22T07:27:19;29.70;23.40
22827;DHT22;11580;52.562;13.418;2023-06-22T07:29:48;29.80;23.70
22827;DHT22;11580;52.562;13.418;2023-06-22T07:32:16;29.80;22.90
22827;DHT22;11580;52.562;13.418;2023-06-22T07:34:43;30.00;23.00
22827;DHT22;11580;52.562;13.418;2023-06-22T07:37:10;30.10;22.70
22827;DHT22;11580;52.562;13.418;2023-06-22T07:39:37;30.20;22.80
22827;DHT22;11580;52.562;13.418;2023-06-22T07:42:05;30.30;23.10
22827;DHT22;11580;52.562;13.418;2023-06-22T07:44:32;30.40;21.80
22827;DHT22;11580;52.562;13.418;2023-06-22T07:47:01;30.50;21.50
22827;DHT22;11580;52.562;13.418;2023-06-22T07:49:28;30.60;21.30
22827;DHT22;11580;52.562;13.418;2023-06-22T07:51:55;30.70;21.90
22827;DHT22;11580;52.562;13.418;2023-06-22T07:54:23;30.90;21.40
22827;DHT22;11580;52.562;13.418;2023-06-22T07:56:50;31.00;21.00
22827;DHT22;11580;52.562;13.418;2023-06-22T07:59:19;31.10;21.10
22827;DHT22;11580;52.562;13.418;2023-06-22T08:01:46;31.30;20.20
22827;DHT22;11580;52.562;13.418;2023-06-22T08:04:16;31.40;19.90
22827;DHT22;11580;52.562;13.418;2023-06-22T08:06:43;31.60;20.20
22827;DHT22;11580;52.562;13.418;2023-06-22T08:09:10;31.70;19.50
22827;DHT22;11580;52.562;13.418;2023-06-22T08:11:37;31.90;19.10
22827;DHT22;11580;52.562;13.418;2023-06-22T08:14:05;32.00;19.00
22827;DHT22;11580;52.562;13.418;2023-06-22T08:16:32;32.10;19.50
22827;DHT22;11580;52.562;13.418;2023-06-22T08:18:59;32.20;18.90
22827;DHT22;11580;52.562;13.418;2023-06-22T08:21:28;32.30;19.10
22827;DHT22;11580;52.562;13.418;2023-06-22T08:23:55;32.40;18.70
22827;DHT22;11580;52.562;13.418;2023-06-22T08:26:22;32.60;19.00
22827;DHT22;11580;52.562;13.418;2023-06-22T08:28:49;32.60;18.20
22827;DHT22;11580;52.562;13.418;2023-06-22T08:31:16;32.70;18.10
22827;DHT22;11580;52.562;13.418;2023-06-22T08:33:43;32.80;18.10
22827;DHT22;11580;52.562;13.418;2023-06-22T08:36:12;32.80;18.20
22827;DHT22;11580;52.562;13.418;2023-06-22T08:38:41;32.90;18.10
22827;DHT22;11580;52.562;13.418;2023-06-22T08:41:08;32.90;18.60
22827;DHT22;11580;52.562;13.418;2023-06-22T08:43:35;32.90;18.00
22827;DHT22;11580;52.562;13.418;2023-06-22T08:46:02;33.00;18.10
22827;DHT22;11580;52.562;13.418;2023-06-22T08:48:29;33.00;18.00
22827;DHT22;11580;52.562;13.418;2023-06-22T08:50:56;33.10;18.40
22827;DHT22;11580;52.562;13.418;2023-06-22T08:53:24;33.20;17.70
22827;DHT22;11580;52.562;13.418;2023-06-22T08:55:52;33.30;18.40
22827;DHT22;11580;52.562;13.418;2023-06-22T08:58:19;33.30;17.50
22827;DHT22;11580;52.562;13.418;2023-06-22T09:00:47;33.30;17.60
22827;DHT22;11580;52.562;13.418;2023-06-22T09:03:15;33.30;17.50
22827;DHT22;11580;52.562;13.418;2023-06-22T09:05:42;33.30;17.60
22827;DHT22;11580;52.562;13.418;2023-06-22T09:08:11;33.40;17.60
22827;DHT22;11580;52.562;13.418;2023-06-22T09:10:38;33.40;17.50
22827;DHT22;11580;52.562;13.418;2023-06-22T09:13:07;33.40;17.90
22827;DHT22;11580;52.562;13.418;2023-06-22T09:15:34;33.60;17.90
22827;DHT22;11580;52.562;13.418;2023-06-22T09:18:01;33.70;18.10
22827;DHT22;11580;52.562;13.418;2023-06-22T09:20:29;33.80;17.90
22827;DHT22;11580;52.562;13.418;2023-06-22T09:22:56;33.90;17.70
22827;DHT22;11580;52.562;13.418;2023-06-22T09:25:24;34.00;17.60
22827;DHT22;11580;52.562;13.418;2023-06-22T09:27:51;34.20;17.50
22827;DHT22;11580;52.562;13.418;2023-06-22T09:30:20;34.20;17.40
22827;DHT22;11580;52.562;13.418;2023-06-22T09:32:48;34.20;17.00
22827;DHT22;11580;52.562;13.418;2023-06-22T09:35:15;34.30;17.20
22827;DHT22;11580;52.562;13.418;2023-06-22T09:37:43;34.20;17.00
22827;DHT22;11580;52.562;13.418;2023-06-22T09:40:11;34.20;16.70
22827;DHT22;11580;52.562;13.418;2023-06-22T09:42:41;34.10;17.40
22827;DHT22;11580;52.562;13.418;2023-06-22T09:45:09;34.00;16.80
22827;DHT22;11580;52.562;13.418;2023-06-22T09:47:38;33.90;16.90
22827;DHT22;11580;52.562;13.418;2023-06-22T09:50:06;33.80;16.30
22827;DHT22;11580;52.562;13.418;2023-06-22T09:52:34;33.80;17.10
22827;DHT22;11580;52.562;13.418;2023-06-22T09:55:01;33.70;16.50
22827;DHT22;11580;52.562;13.418;2023-06-22T09:57:29;33.60;16.60
22827;DHT22;11580;52.562;13.418;2023-06-22T09:59:57;33.50;16.70
22827;DHT22;11580;52.562;13.418;2023-06-22T10:02:24;33.40;17.00
22827;DHT22;11580;52.562;13.418;2023-06-22T10:04:53;33.40;16.80
22827;DHT22;11580;52.562;13.418;2023-06-22T10:07:22;33.40;16.60
22827;DHT22;11580;52.562;13.418;2023-06-22T10:09:49;33.30;16.60
22827;DHT22;11580;52.562;13.418;2023-06-22T10:12:16;33.30;17.00
22827;DHT22;11580;52.562;13.418;2023-06-22T10:14:44;33.30;16.40
22827;DHT22;11580;52.562;13.418;2023-06-22T10:17:11;33.30;16.40
22827;DHT22;11580;52.562;13.418;2023-06-22T10:19:38;33.30;16.40
22827;DHT22;11580;52.562;13.418;2023-06-22T10:22:08;33.30;16.30
22827;DHT22;11580;52.562;13.418;2023-06-22T10:24:35;33.30;16.20
22827;DHT22;11580;52.562;13.418;2023-06-22T10:27:04;33.30;16.60
22827;DHT22;11580;52.562;13.418;2023-06-22T10:29:32;33.30;16.60
22827;DHT22;11580;52.562;13.418;2023-06-22T10:31:59;33.30;16.70
22827;DHT22;11580;52.562;13.418;2023-06-22T10:34:26;33.30;16.80
22827;DHT22;11580;52.562;13.418;2023-06-22T10:36:53;33.30;16.70
22827;DHT22;11580;52.562;13.418;2023-06-22T10:39:22;33.30;16.80
22827;DHT22;11580;52.562;13.418;2023-06-22T10:41:49;33.30;16.80
22827;DHT22;11580;52.562;13.418;2023-06-22T10:44:16;33.30;16.60
22827;DHT22;11580;52.562;13.418;2023-06-22T10:46:44;33.30;17.20
22827;DHT22;11580;52.562;13.418;2023-06-22T10:49:11;33.30;16.70
22827;DHT22;11580;52.562;13.418;2023-06-22T10:51:38;33.20;16.70
22827;DHT22;11580;52.562;13.418;2023-06-22T10:54:05;33.20;16.90
22827;DHT22;11580;52.562;13.418;2023-06-22T10:56:34;33.20;16.80
22827;DHT22;11580;52.562;13.418;2023-06-22T10:59:01;33.20;16.90
22827;DHT22;11580;52.562;13.418;2023-06-22T11:01:28;33.10;16.80
22827;DHT22;11580;52.562;13.418;2023-06-22T11:03:56;33.20;16.80
22827;DHT22;11580;52.562;13.418;2023-06-22T11:06:24;33.10;16.70
22827;DHT22;11580;52.562;13.418;2023-06-22T11:08:51;33.10;16.70
22827;DHT22;11580;52.562;13.418;2023-06-22T11:11:18;33.00;16.50
22827;DHT22;11580;52.562;13.418;2023-06-22T11:13:46;33.00;16.60
22827;DHT22;11580;52.562;13.418;2023-06-22T11:16:14;32.90;16.70
22827;DHT22;11580;52.562;13.418;2023-06-22T11:18:41;32.80;16.80
22827;DHT22;11580;52.562;13.418;2023-06-22T11:21:08;32.70;16.80
22827;DHT22;11580;52.562;13.418;2023-06-22T11:23:36;32.70;16.60
22827;DHT22;11580;52.562;13.418;2023-06-22T11:26:03;32.60;17.30
22827;DHT22;11580;52.562;13.418;2023-06-22T11:28:30;32.60;16.50
22827;DHT22;11580;52.562;13.418;2023-06-22T11:30:58;32.50;16.40
22827;DHT22;11580;52.562;13.418;2023-06-22T11:33:26;32.60;16.70
22827;DHT22;11580;52.562;13.418;2023-06-22T11:35:53;32.50;16.90
22827;DHT22;11580;52.562;13.418;2023-06-22T11:38:22;32.50;17.60
22827;DHT22;11580;52.562;13.418;2023-06-22T11:40:49;32.60;16.70
22827;DHT22;11580;52.562;13.418;2023-06-22T11:43:16;32.60;16.60
22827;DHT22;11580;52.562;13.418;2023-06-22T11:45:43;32.60;17.30
22827;DHT22;11580;52.562;13.418;2023-06-22T11:48:12;32.60;16.70
22827;DHT22;11580;52.562;13.418;2023-06-22T11:50:39;32.60;17.30
22827;DHT22;11580;52.562;13.418;2023-06-22T11:53:06;32.70;16.60
22827;DHT22;11580;52.562;13.418;2023-06-22T11:55:33;32.70;16.60
22827;DHT22;11580;52.562;13.418;2023-06-22T11:58:01;32.70;16.60
22827;DHT22;11580;52.562;13.418;2023-06-22T12:00:29;32.70;16.50
22827;DHT22;11580;52.562;13.418;2023-06-22T12:02:56;32.60;16.70
22827;DHT22;11580;52.562;13.418;2023-06-22T12:05:25;32.60;17.30
22827;DHT22;11580;52.562;13.418;2023-06-22T12:07:53;32.60;16.50
22827;DHT22;11580;52.562;13.418;2023-06-22T12:10:21;32.60;16.70
22827;DHT22;11580;52.562;13.418;2023-06-22T12:12:50;32.60;16.70
22827;DHT22;11580;52.562;13.418;2023-06-22T12:15:17;32.60;16.70
22827;DHT22;11580;52.562;13.418;2023-06-22T12:17:44;32.60;16.80
22827;DHT22;11580;52.562;13.418;2023-06-22T12:20:13;32.60;17.30
22827;DHT22;11580;52.562;13.418;2023-06-22T12:22:42;32.70;16.90
22827;DHT22;11580;52.562;13.418;2023-06-22T12:25:10;32.70;16.80
22827;DHT22;11580;52.562;13.418;2023-06-22T12:27:38;32.80;17.10
22827;DHT22;11580;52.562;13.418;2023-06-22T12:30:06;32.80;16.80
22827;DHT22;11580;52.562;13.418;2023-06-22T12:32:33;32.90;16.50
22827;DHT22;11580;52.562;13.418;2023-06-22T12:35:00;33.00;16.50
22827;DHT22;11580;52.562;13.418;2023-06-22T12:37:28;33.00;16.90
22827;DHT22;11580;52.562;13.418;2023-06-22T12:39:58;33.00;16.30
22827;DHT22;11580;52.562;13.418;2023-06-22T12:42:25;32.90;16.80
22827;DHT22;11580;52.562;13.418;2023-06-22T12:44:53;32.80;16.30
22827;DHT22;11580;52.562;13.418;2023-06-22T12:47:21;32.80;17.10
22827;DHT22;11580;52.562;13.418;2023-06-22T12:49:48;32.70;17.10
22827;DHT22;11580;52.562;13.418;2023-06-22T12:52:15;32.70;16.60
22827;DHT22;11580;52.562;13.418;2023-06-22T12:54:43;32.70;16.60
22827;DHT22;11580;52.562;13.418;2023-06-22T12:57:11;32.60;16.50
22827;DHT22;11580;52.562;13.418;2023-06-22T12:59:38;32.60;16.70
22827;DHT22;11580;52.562;13.418;2023-06-22T13:02:06;32.60;16.80
22827;DHT22;11580;52.562;13.418;2023-06-22T13:04:33;32.60;16.80
22827;DHT22;11580;52.562;13.418;2023-06-22T13:07:00;32.60;16.60
22827;DHT22;11580;52.562;13.418;2023-06-22T13:09:28;32.70;16.80
22827;DHT22;11580;52.562;13.418;2023-06-22T13:11:55;32.70;16.80
22827;DHT22;11580;52.562;13.418;2023-06-22T13:14:23;32.80;16.60
22827;DHT22;11580;52.562;13.418;2023-06-22T13:16:50;32.90;16.50
22827;DHT22;11580;52.562;13.418;2023-06-22T13:19:17;32.90;16.50
22827;DHT22;11580;52.562;13.418;2023-06-22T13:21:45;32.90;16.30
22827;DHT22;11580;52.562;13.418;2023-06-22T13:24:12;33.00;16.30
22827;DHT22;11580;52.562;13.418;2023-06-22T13:26:39;33.00;16.30
22827;DHT22;11580;52.562;13.418;2023-06-22T13:29:06;33.00;17.10
22827;DHT22;11580;52.562;13.418;2023-06-22T13:31:35;33.00;16.60
22827;DHT22;11580;52.562;13.418;2023-06-22T13:34:02;33.00;16.60
22827;DHT22;11580;52.562;13.418;2023-06-22T13:36:29;33.00;16.80
22827;DHT22;11580;52.562;13.418;2023-06-22T13:38:57;33.00;16.70
22827;DHT22;11580;52.562;13.418;2023-06-22T13:41:24;33.10;16.80
22827;DHT22;11580;52.562;13.418;2023-06-22T13:43:51;33.00;16.60
22827;DHT22;11580;52.562;13.418;2023-06-22T13:46:19;33.10;16.70
22827;DHT22;11580;52.562;13.418;2023-06-22T13:48:47;33.10;17.20
22827;DHT22;11580;52.562;13.418;2023-06-22T13:51:15;33.10;16.40
22827;DHT22;11580;52.562;13.418;2023-06-22T13:53:42;33.10;17.10
22827;DHT22;11580;52.562;13.418;2023-06-22T13:56:09;33.10;16.50
22827;DHT22;11580;52.562;13.418;2023-06-22T13:58:36;33.10;17.10
22827;DHT22;11580;52.562;13.418;2023-06-22T14:01:03;33.10;16.60
22827;DHT22;11580;52.562;13.418;2023-06-22T14:03:30;33.00;16.60
22827;DHT22;11580;52.562;13.418;2023-06-22T14:05:59;33.00;16.60
22827;DHT22;11580;52.562;13.418;2023-06-22T14:08:26;33.00;16.50
22827;DHT22;11580;52.562;13.418;2023-06-22T14:10:53;33.00;16.60
22827;DHT22;11580;52.562;13.418;2023-06-22T14:13:20;33.00;16.60
22827;DHT22;11580;52.562;13.418;2023-06-22T14:15:48;32.90;16.70
22827;DHT22;11580;52.562;13.418;2023-06-22T14:18:17;32.90;16.60
22827;DHT22;11580;52.562;13.418;2023-06-22T14:20:44;32.80;16.70
22827;DHT22;11580;52.562;13.418;2023-06-22T14:23:14;32.80;16.50
22827;DHT22;11580;52.562;13.418;2023-06-22T14:25:42;32.70;16.60
22827;DHT22;11580;52.562;13.418;2023-06-22T14:28:09;32.70;16.80
22827;DHT22;11580;52.562;13.418;2023-06-22T14:30:36;32.70;16.90
22827;DHT22;11580;52.562;13.418;2023-06-22T14:33:03;32.60;17.50
22827;DHT22;11580;52.562;13.418;2023-06-22T14:35:30;32.60;17.00
22827;DHT22;11580;52.562;13.418;2023-06-22T14:37:57;32.60;17.00
22827;DHT22;11580;52.562;13.418;2023-06-22T14:40:26;32.50;17.40
22827;DHT22;11580;52.562;13.418;2023-06-22T14:42:53;32.50;17.00
22827;DHT22;11580;52.562;13.418;2023-06-22T14:45:22;32.50;17.10
22827;DHT22;11580;52.562;13.418;2023-06-22T14:47:49;32.50;17.10
22827;DHT22;11580;52.562;13.418;2023-06-22T14:50:17;32.40;17.70
22827;DHT22;11580;52.562;13.418;2023-06-22T14:52:44;32.40;17.10
22827;DHT22;11580;52.562;13.418;2023-06-22T14:55:11;32.40;17.10
22827;DHT22;11580;52.562;13.418;2023-06-22T14:57:40;32.40;17.00
22827;DHT22;11580;52.562;13.418;2023-06-22T15:00:08;32.40;17.10
22827;DHT22;11580;52.562;13.418;2023-06-22T15:02:35;32.30;17.10
22827;DHT22;11580;52.562;13.418;2023-06-22T15:05:03;32.30;17.20
22827;DHT22;11580;52.562;13.418;2023-06-22T15:07:31;32.30;17.30
22827;DHT22;11580;52.562;13.418;2023-06-22T15:09:58;32.30;17.30
22827;DHT22;11580;52.562;13.418;2023-06-22T15:12:25;32.30;17.10
22827;DHT22;11580;52.562;13.418;2023-06-22T15:14:53;32.30;17.80
22827;DHT22;11580;52.562;13.418;2023-06-22T15:17:21;32.30;17.30
22827;DHT22;11580;52.562;13.418;2023-06-22T15:19:48;32.30;17.40
22827;DHT22;11580;52.562;13.418;2023-06-22T15:22:15;32.30;17.30